sensor_id;sensor_type;location;lat;lon;timestamp;temperature;humidity
25046;DHT22;13044;49.304;12.840;2022-12-29T00:02:00;4.40;99.90
25046;DHT22;13044;49.304;12.840;2022-12-29T00:04:27;4.40;99.90
25046;DHT22;13044;49.304;12.840;2022-12-29T00:06:54;4.40;99.90
25046;DHT22;13044;49.304;12.840;2022-12-29T00:09:20;4.30;99.90
25046;DHT22;13044;49.304;12.840;2022-12-29T00:11:47;4.40;99.90
25046;DHT22;13044;49.304;12.840;2022-12-29T00:14:16;4.40;99.90
25046;DHT22;13044;49.304;12.840;2022-12-29T00:17:02;4.40;99.90
25046;DHT22;13044;49.304;12.840;2022-12-29T00:19:29;4.30;99.90
25046;DHT22;13044;49.304;12.840;2022-12-29T00:22:15;4.30;99.90
25046;DHT22;13044;49.304;12.840;2022-12-29T00:25:00;4.30;99.90
25046;DHT22;13044;49.304;12.840;2022-12-29T00:27:46;4.30;99.90
25046;DHT22;13044;49.304;12.840;2022-12-29T00:30:33;4.30;99.90
25046;DHT22;13044;49.304;12.840;2022-12-29T00:33:20;4.30;99.90
25046;DHT22;13044;49.304;12.840;2022-12-29T00:36:28;4.20;99.90
25046;DHT22;13044;49.304;12.840;2022-12-29T00:39:16;4.20;99.90
25046;DHT22;13044;49.304;12.840;2022-12-29T00:42:04;4.30;99.90
25046;DHT22;13044;49.304;12.840;2022-12-29T00:44:51;4.20;99.90
25046;DHT22;13044;49.304;12.840;2022-12-29T00:47:18;4.20;99.90
25046;DHT22;13044;49.304;12.840;2022-12-29T00:49:45;4.20;99.90
25046;DHT22;13044;49.304;12.840;2022-12-29T00:52:13;4.30;99.90
25046;DHT22;13044;49.304;12.840;2022-12-29T00:54:41;4.30;99.90
25046;DHT22;13044;49.304;12.840;2022-12-29T00:57:09;4.20;99.90
25046;DHT22;13044;49.304;12.840;2022-12-29T00:59:37;4.30;99.90
25046;DHT22;13044;49.304;12.840;2022-12-29T01:02:06;4.30;99.90
25046;DHT22;13044;49.304;12.840;2022-12-29T01:04:34;4.30;99.90
25046;DHT22;13044;49.304;12.840;2022-12-29T01:07:01;4.20;99.90
25046;DHT22;13044;49.304;12.840;2022-12-29T01:09:28;4.20;99.90
25046;DHT22;13044;49.304;12.840;2022-12-29T01:12:13;4.20;99.90
25046;DHT22;13044;49.304;12.840;2022-12-29T01:14:40;4.10;99.90
25046;DHT22;13044;49.304;12.840;2022-12-29T01:17:07;4.20;99.90
25046;DHT22;13044;49.304;12.840;2022-12-29T01:19:34;4.10;99.90
25046;DHT22;13044;49.304;12.840;2022-12-29T01:22:01;4.20;99.90
25046;DHT22;13044;49.304;12.840;2022-12-29T01:24:28;4.20;99.90
25046;DHT22;13044;49.304;12.840;2022-12-29T01:26:55;4.20;99.90
25046;DHT22;13044;49.304;12.840;2022-12-29T01:29:22;4.20;99.90
25046;DHT22;13044;49.304;12.840;2022-12-29T01:31:49;4.10;99.90
25046;DHT22;13044;49.304;12.840;2022-12-29T01:34:17;4.10;99.90
25046;DHT22;13044;49.304;12.840;2022-12-29T01:36:44;4.10;99.90
25046;DHT22;13044;49.304;12.840;2022-12-29T01:39:11;4.10;99.90
25046;DHT22;13044;49.304;12.840;2022-12-29T01:41:41;4.10;99.90
25046;DHT22;13044;49.304;12.840;2022-12-29T01:47:34;4.10;99.90
25046;DHT22;13044;49.304;12.840;2022-12-29T01:50:27;4.10;99.90
25046;DHT22;13044;49.304;12.840;2022-12-29T01:53:25;4.10;99.90
25046;DHT22;13044;49.304;12.840;2022-12-29T01:55:57;4.10;99.90
25046;DHT22;13044;49.304;12.840;2022-12-29T01:58:30;4.10;99.90
25046;DHT22;13044;49.304;12.840;2022-12-29T02:01:00;4.00;99.90
25046;DHT22;13044;49.304;12.840;2022-12-29T02:03:28;4.00;99.90
25046;DHT22;13044;49.304;12.840;2022-12-29T02:06:02;4.00;99.90
25046;DHT22;13044;49.304;12.840;2022-12-29T02:08:32;4.00;99.90
25046;DHT22;13044;49.304;12.840;2022-12-29T02:11:00;4.00;99.90
25046;DHT22;13044;49.304;12.840;2022-12-29T02:13:28;3.90;99.90
25046;DHT22;13044;49.304;12.840;2022-12-29T02:16:35;3.90;99.90
25046;DHT22;13044;49.304;12.840;2022-12-29T02:19:36;3.90;99.90
25046;DHT22;13044;49.304;12.840;2022-12-29T02:22:34;3.80;99.90
25046;DHT22;13044;49.304;12.840;2022-12-29T02:25:48;3.70;99.90
25046;DHT22;13044;49.304;12.840;2022-12-29T02:31:40;3.80;99.90
25046;DHT22;13044;49.304;12.840;2022-12-29T02:45:59;3.50;99.90
25046;DHT22;13044;49.304;12.840;2022-12-29T02:51:06;3.50;99.90
25046;DHT22;13044;49.304;12.840;2022-12-29T02:53:39;3.50;99.90
25046;DHT22;13044;49.304;12.840;2022-12-29T02:56:25;3.40;99.90
25046;DHT22;13044;49.304;12.840;2022-12-29T02:58:52;3.40;99.90
25046;DHT22;13044;49.304;12.840;2022-12-29T03:13:13;3.40;99.90
25046;DHT22;13044;49.304;12.840;2022-12-29T03:16:21;3.30;99.90
25046;DHT22;13044;49.304;12.840;2022-12-29T03:19:00;3.30;99.90
25046;DHT22;13044;49.304;12.840;2022-12-29T03:21:48;3.30;99.90
25046;DHT22;13044;49.304;12.840;2022-12-29T03:24:40;3.20;99.90
25046;DHT22;13044;49.304;12.840;2022-12-29T03:27:14;3.20;99.90
25046;DHT22;13044;49.304;12.840;2022-12-29T03:29:50;3.30;99.90
25046;DHT22;13044;49.304;12.840;2022-12-29T03:32:25;3.30;99.90
25046;DHT22;13044;49.304;12.840;2022-12-29T03:34:58;3.50;99.90
25046;DHT22;13044;49.304;12.840;2022-12-29T03:37:34;3.60;99.90
25046;DHT22;13044;49.304;12.840;2022-12-29T03:40:04;3.80;99.90
25046;DHT22;13044;49.304;12.840;2022-12-29T03:42:34;3.90;99.90
25046;DHT22;13044;49.304;12.840;2022-12-29T03:45:04;3.90;99.90
25046;DHT22;13044;49.304;12.840;2022-12-29T03:47:32;4.00;99.90
25046;DHT22;13044;49.304;12.840;2022-12-29T03:49:59;4.00;99.90
25046;DHT22;13044;49.304;12.840;2022-12-29T03:52:26;4.10;99.90
25046;DHT22;13044;49.304;12.840;2022-12-29T03:54:53;4.10;99.90
25046;DHT22;13044;49.304;12.840;2022-12-29T03:57:19;4.10;99.90
25046;DHT22;13044;49.304;12.840;2022-12-29T03:59:46;4.10;99.90
25046;DHT22;13044;49.304;12.840;2022-12-29T04:02:13;4.20;99.90
25046;DHT22;13044;49.304;12.840;2022-12-29T04:04:40;4.20;99.90
25046;DHT22;13044;49.304;12.840;2022-12-29T04:07:07;4.20;99.90
25046;DHT22;13044;49.304;12.840;2022-12-29T04:09:34;4.20;99.90
25046;DHT22;13044;49.304;12.840;2022-12-29T04:12:01;4.20;99.90
25046;DHT22;13044;49.304;12.840;2022-12-29T04:14:28;4.20;99.90
25046;DHT22;13044;49.304;12.840;2022-12-29T04:16:54;4.20;99.90
25046;DHT22;13044;49.304;12.840;2022-12-29T04:19:21;4.30;99.90
25046;DHT22;13044;49.304;12.840;2022-12-29T04:21:48;4.30;99.90
25046;DHT22;13044;49.304;12.840;2022-12-29T04:24:15;4.20;99.90
25046;DHT22;13044;49.304;12.840;2022-12-29T04:26:44;4.20;99.90
25046;DHT22;13044;49.304;12.840;2022-12-29T04:29:11;4.20;99.90
25046;DHT22;13044;49.304;12.840;2022-12-29T04:31:37;4.20;99.90
25046;DHT22;13044;49.304;12.840;2022-12-29T04:34:04;4.30;99.90
25046;DHT22;13044;49.304;12.840;2022-12-29T04:36:31;4.30;99.90
25046;DHT22;13044;49.304;12.840;2022-12-29T04:38:58;4.30;99.90
25046;DHT22;13044;49.304;12.840;2022-12-29T04:41:25;4.30;99.90
25046;DHT22;13044;49.304;12.840;2022-12-29T04:43:52;4.40;99.90
25046;DHT22;13044;49.304;12.840;2022-12-29T04:46:19;4.30;99.90
25046;DHT22;13044;49.304;12.840;2022-12-29T04:48:46;4.30;99.90
25046;DHT22;13044;49.304;12.840;2022-12-29T04:51:13;4.30;99.90
25046;DHT22;13044;49.304;12.840;2022-12-29T04:53:40;4.40;99.90
25046;DHT22;13044;49.304;12.840;2022-12-29T04:56:07;4.40;99.90
25046;DHT22;13044;49.304;12.840;2022-12-29T04:58:36;4.40;99.90
25046;DHT22;13044;49.304;12.840;2022-12-29T05:01:02;4.40;99.90
25046;DHT22;13044;49.304;12.840;2022-12-29T05:03:29;4.40;99.90
25046;DHT22;13044;49.304;12.840;2022-12-29T05:05:56;4.50;99.90
25046;DHT22;13044;49.304;12.840;2022-12-29T05:08:24;4.50;99.90
25046;DHT22;13044;49.304;12.840;2022-12-29T05:10:54;4.50;99.90
25046;DHT22;13044;49.304;12.840;2022-12-29T05:13:20;4.40;99.90
25046;DHT22;13044;49.304;12.840;2022-12-29T05:15:51;4.50;99.90
25046;DHT22;13044;49.304;12.840;2022-12-29T05:18:18;4.50;99.90
25046;DHT22;13044;49.304;12.840;2022-12-29T05:20:46;4.50;99.90
25046;DHT22;13044;49.304;12.840;2022-12-29T05:23:13;4.50;99.90
25046;DHT22;13044;49.304;12.840;2022-12-29T05:25:40;4.50;99.90
25046;DHT22;13044;49.304;12.840;2022-12-29T05:28:07;4.50;99.90
25046;DHT22;13044;49.304;12.840;2022-12-29T05:30:34;4.50;99.90
25046;DHT22;13044;49.304;12.840;2022-12-29T05:33:01;4.50;99.90
25046;DHT22;13044;49.304;12.840;2022-12-29T05:35:28;4.50;99.90
25046;DHT22;13044;49.304;12.840;2022-12-29T05:37:54;4.60;99.90
25046;DHT22;13044;49.304;12.840;2022-12-29T05:40:21;4.60;99.90
25046;DHT22;13044;49.304;12.840;2022-12-29T05:42:48;4.60;99.90
25046;DHT22;13044;49.304;12.840;2022-12-29T05:45:15;4.70;99.90
25046;DHT22;13044;49.304;12.840;2022-12-29T05:47:42;4.70;99.90
25046;DHT22;13044;49.304;12.840;2022-12-29T05:50:09;4.70;99.90
25046;DHT22;13044;49.304;12.840;2022-12-29T05:52:35;4.70;99.90
25046;DHT22;13044;49.304;12.840;2022-12-29T05:55:02;4.80;99.90
25046;DHT22;13044;49.304;12.840;2022-12-29T05:57:30;4.80;99.90
25046;DHT22;13044;49.304;12.840;2022-12-29T05:59:56;4.70;99.90
25046;DHT22;13044;49.304;12.840;2022-12-29T06:02:23;4.70;99.90
25046;DHT22;13044;49.304;12.840;2022-12-29T06:04:50;4.80;99.90
25046;DHT22;13044;49.304;12.840;2022-12-29T06:07:17;4.70;99.90
25046;DHT22;13044;49.304;12.840;2022-12-29T06:09:44;4.70;99.90
25046;DHT22;13044;49.304;12.840;2022-12-29T06:12:11;4.80;99.90
25046;DHT22;13044;49.304;12.840;2022-12-29T06:14:37;4.80;99.90
25046;DHT22;13044;49.304;12.840;2022-12-29T06:17:04;4.80;99.90
25046;DHT22;13044;49.304;12.840;2022-12-29T06:19:31;4.80;99.90
25046;DHT22;13044;49.304;12.840;2022-12-29T06:21:58;4.90;99.90
25046;DHT22;13044;49.304;12.840;2022-12-29T06:24:25;4.90;99.90
25046;DHT22;13044;49.304;12.840;2022-12-29T06:26:52;4.90;99.90
25046;DHT22;13044;49.304;12.840;2022-12-29T06:29:19;5.00;99.90
25046;DHT22;13044;49.304;12.840;2022-12-29T06:31:46;5.00;99.90
25046;DHT22;13044;49.304;12.840;2022-12-29T06:34:15;5.10;99.90
25046;DHT22;13044;49.304;12.840;2022-12-29T06:36:42;5.20;99.90
25046;DHT22;13044;49.304;12.840;2022-12-29T06:39:10;5.20;99.90
25046;DHT22;13044;49.304;12.840;2022-12-29T06:41:37;5.10;99.90
25046;DHT22;13044;49.304;12.840;2022-12-29T06:44:04;5.20;99.90
25046;DHT22;13044;49.304;12.840;2022-12-29T06:46:31;5.20;99.90
25046;DHT22;13044;49.304;12.840;2022-12-29T06:48:58;5.20;99.90
25046;DHT22;13044;49.304;12.840;2022-12-29T06:51:24;5.30;99.90
25046;DHT22;13044;49.304;12.840;2022-12-29T06:53:51;5.20;99.90
25046;DHT22;13044;49.304;12.840;2022-12-29T06:56:18;5.30;99.90
25046;DHT22;13044;49.304;12.840;2022-12-29T06:58:45;5.30;99.90
25046;DHT22;13044;49.304;12.840;2022-12-29T07:01:12;5.30;99.90
25046;DHT22;13044;49.304;12.840;2022-12-29T07:03:41;5.40;99.90
25046;DHT22;13044;49.304;12.840;2022-12-29T07:06:09;5.40;99.90
25046;DHT22;13044;49.304;12.840;2022-12-29T07:08:36;5.50;99.90
25046;DHT22;13044;49.304;12.840;2022-12-29T07:11:03;5.50;99.90
25046;DHT22;13044;49.304;12.840;2022-12-29T07:13:30;5.60;99.90
25046;DHT22;13044;49.304;12.840;2022-12-29T07:15:56;5.60;99.90
25046;DHT22;13044;49.304;12.840;2022-12-29T07:18:23;5.60;99.90
25046;DHT22;13044;49.304;12.840;2022-12-29T07:20:50;5.60;99.90
25046;DHT22;13044;49.304;12.840;2022-12-29T07:23:17;5.60;99.90
25046;DHT22;13044;49.304;12.840;2022-12-29T07:25:44;5.70;99.90
25046;DHT22;13044;49.304;12.840;2022-12-29T07:28:10;5.70;99.90
25046;DHT22;13044;49.304;12.840;2022-12-29T07:30:37;5.70;99.90
25046;DHT22;13044;49.304;12.840;2022-12-29T07:33:04;5.70;99.90
25046;DHT22;13044;49.304;12.840;2022-12-29T07:35:33;5.80;99.90
25046;DHT22;13044;49.304;12.840;2022-12-29T07:38:00;5.80;99.90
25046;DHT22;13044;49.304;12.840;2022-12-29T07:40:27;5.80;99.90
25046;DHT22;13044;49.304;12.840;2022-12-29T07:42:54;5.80;99.90
25046;DHT22;13044;49.304;12.840;2022-12-29T07:45:21;5.80;99.90
25046;DHT22;13044;49.304;12.840;2022-12-29T07:47:49;5.80;99.90
25046;DHT22;13044;49.304;12.840;2022-12-29T07:50:16;5.80;99.90
25046;DHT22;13044;49.304;12.840;2022-12-29T07:52:44;5.80;99.90
25046;DHT22;13044;49.304;12.840;2022-12-29T07:55:12;5.90;99.90
25046;DHT22;13044;49.304;12.840;2022-12-29T07:57:39;5.90;99.90
25046;DHT22;13044;49.304;12.840;2022-12-29T08:00:06;5.90;99.90
25046;DHT22;13044;49.304;12.840;2022-12-29T08:02:33;6.00;99.90
25046;DHT22;13044;49.304;12.840;2022-12-29T08:05:00;6.00;99.90
25046;DHT22;13044;49.304;12.840;2022-12-29T08:07:27;6.10;99.90
25046;DHT22;13044;49.304;12.840;2022-12-29T08:09:54;6.10;99.90
25046;DHT22;13044;49.304;12.840;2022-12-29T08:12:21;6.20;99.90
25046;DHT22;13044;49.304;12.840;2022-12-29T08:14:48;6.20;99.90
25046;DHT22;13044;49.304;12.840;2022-12-29T08:17:15;6.30;99.90
25046;DHT22;13044;49.304;12.840;2022-12-29T08:19:42;6.30;99.90
25046;DHT22;13044;49.304;12.840;2022-12-29T08:22:09;6.40;99.90
25046;DHT22;13044;49.304;12.840;2022-12-29T08:24:36;6.30;99.90
25046;DHT22;13044;49.304;12.840;2022-12-29T08:27:02;6.40;99.90
25046;DHT22;13044;49.304;12.840;2022-12-29T08:29:43;6.40;99.90
25046;DHT22;13044;49.304;12.840;2022-12-29T08:32:10;6.50;99.90
25046;DHT22;13044;49.304;12.840;2022-12-29T08:34:37;6.50;99.90
25046;DHT22;13044;49.304;12.840;2022-12-29T08:37:04;6.60;99.90
25046;DHT22;13044;49.304;12.840;2022-12-29T08:39:31;6.70;99.90
25046;DHT22;13044;49.304;12.840;2022-12-29T08:41:58;6.80;99.90
25046;DHT22;13044;49.304;12.840;2022-12-29T08:44:25;6.90;99.90
25046;DHT22;13044;49.304;12.840;2022-12-29T08:46:52;7.00;99.90
25046;DHT22;13044;49.304;12.840;2022-12-29T08:49:19;7.10;99.90
25046;DHT22;13044;49.304;12.840;2022-12-29T08:51:46;7.30;99.90
25046;DHT22;13044;49.304;12.840;2022-12-29T08:54:13;7.40;99.90
25046;DHT22;13044;49.304;12.840;2022-12-29T08:56:40;7.50;99.90
25046;DHT22;13044;49.304;12.840;2022-12-29T08:59:07;7.50;99.90
25046;DHT22;13044;49.304;12.840;2022-12-29T09:01:34;7.60;99.90
25046;DHT22;13044;49.304;12.840;2022-12-29T09:04:03;7.60;99.90
25046;DHT22;13044;49.304;12.840;2022-12-29T09:06:41;7.80;99.90
25046;DHT22;13044;49.304;12.840;2022-12-29T09:09:08;7.70;99.90
25046;DHT22;13044;49.304;12.840;2022-12-29T09:11:36;7.80;99.90
25046;DHT22;13044;49.304;12.840;2022-12-29T09:14:03;7.90;99.90
25046;DHT22;13044;49.304;12.840;2022-12-29T09:16:30;8.00;99.90
25046;DHT22;13044;49.304;12.840;2022-12-29T09:18:58;8.10;99.90
25046;DHT22;13044;49.304;12.840;2022-12-29T09:21:24;8.20;99.90
25046;DHT22;13044;49.304;12.840;2022-12-29T09:23:52;8.20;99.90
25046;DHT22;13044;49.304;12.840;2022-12-29T09:26:18;8.30;99.90
25046;DHT22;13044;49.304;12.840;2022-12-29T09:28:46;8.30;99.90
25046;DHT22;13044;49.304;12.840;2022-12-29T09:31:13;8.30;99.90
25046;DHT22;13044;49.304;12.840;2022-12-29T09:33:41;8.40;99.90
25046;DHT22;13044;49.304;12.840;2022-12-29T09:36:08;8.40;99.90
25046;DHT22;13044;49.304;12.840;2022-12-29T09:38:36;8.50;99.90
25046;DHT22;13044;49.304;12.840;2022-12-29T09:41:24;8.50;99.80
25046;DHT22;13044;49.304;12.840;2022-12-29T09:44:17;8.60;99.80
25046;DHT22;13044;49.304;12.840;2022-12-29T09:46:51;8.70;99.90
25046;DHT22;13044;49.304;12.840;2022-12-29T09:51:54;8.80;98.70
25046;DHT22;13044;49.304;12.840;2022-12-29T09:57:00;8.90;99.40
25046;DHT22;13044;49.304;12.840;2022-12-29T09:59:38;9.00;99.50
25046;DHT22;13044;49.304;12.840;2022-12-29T10:02:23;9.00;99.40
25046;DHT22;13044;49.304;12.840;2022-12-29T10:04:56;9.00;98.90
25046;DHT22;13044;49.304;12.840;2022-12-29T10:08:15;9.20;98.20
25046;DHT22;13044;49.304;12.840;2022-12-29T10:11:03;9.20;98.10
25046;DHT22;13044;49.304;12.840;2022-12-29T10:16:49;9.30;99.40
25046;DHT22;13044;49.304;12.840;2022-12-29T10:25:46;9.40;99.40
25046;DHT22;13044;49.304;12.840;2022-12-29T10:28:30;9.50;99.50
25046;DHT22;13044;49.304;12.840;2022-12-29T10:31:00;9.50;98.20
25046;DHT22;13044;49.304;12.840;2022-12-29T10:33:37;9.60;99.00
25046;DHT22;13044;49.304;12.840;2022-12-29T10:36:18;9.70;99.00
25046;DHT22;13044;49.304;12.840;2022-12-29T10:39:10;9.80;98.50
25046;DHT22;13044;49.304;12.840;2022-12-29T10:41:51;9.90;98.30
25046;DHT22;13044;49.304;12.840;2022-12-29T10:44:24;9.80;98.50
25046;DHT22;13044;49.304;12.840;2022-12-29T10:46:59;10.00;98.30
25046;DHT22;13044;49.304;12.840;2022-12-29T10:49:30;10.10;96.90
25046;DHT22;13044;49.304;12.840;2022-12-29T10:52:02;10.20;97.90
25046;DHT22;13044;49.304;12.840;2022-12-29T10:54:53;10.20;97.50
25046;DHT22;13044;49.304;12.840;2022-12-29T10:57:47;10.30;97.30
25046;DHT22;13044;49.304;12.840;2022-12-29T11:00:20;10.20;96.40
25046;DHT22;13044;49.304;12.840;2022-12-29T11:03:16;10.20;97.80
25046;DHT22;13044;49.304;12.840;2022-12-29T11:06:25;10.20;98.10
25046;DHT22;13044;49.304;12.840;2022-12-29T11:09:12;10.30;97.90
25046;DHT22;13044;49.304;12.840;2022-12-29T11:11:42;10.40;98.00
25046;DHT22;13044;49.304;12.840;2022-12-29T11:14:13;10.40;97.30
25046;DHT22;13044;49.304;12.840;2022-12-29T11:16:43;10.50;96.90
25046;DHT22;13044;49.304;12.840;2022-12-29T11:19:23;10.50;96.10
25046;DHT22;13044;49.304;12.840;2022-12-29T11:21:52;10.60;96.20
25046;DHT22;13044;49.304;12.840;2022-12-29T11:24:25;10.60;97.60
25046;DHT22;13044;49.304;12.840;2022-12-29T11:27:16;10.50;97.50
25046;DHT22;13044;49.304;12.840;2022-12-29T11:29:43;10.50;96.90
25046;DHT22;13044;49.304;12.840;2022-12-29T11:32:19;10.50;97.30
25046;DHT22;13044;49.304;12.840;2022-12-29T11:34:53;10.40;95.90
25046;DHT22;13044;49.304;12.840;2022-12-29T11:37:36;10.30;96.40
25046;DHT22;13044;49.304;12.840;2022-12-29T11:40:26;10.30;96.40
25046;DHT22;13044;49.304;12.840;2022-12-29T11:43:00;10.20;95.90
25046;DHT22;13044;49.304;12.840;2022-12-29T11:45:35;10.20;95.70
25046;DHT22;13044;49.304;12.840;2022-12-29T11:48:18;10.20;96.10
25046;DHT22;13044;49.304;12.840;2022-12-29T11:50:53;10.20;95.80
25046;DHT22;13044;49.304;12.840;2022-12-29T11:53:26;10.10;96.10
25046;DHT22;13044;49.304;12.840;2022-12-29T11:56:10;10.10;96.30
25046;DHT22;13044;49.304;12.840;2022-12-29T11:58:41;10.00;96.10
25046;DHT22;13044;49.304;12.840;2022-12-29T12:04:16;10.00;96.90
25046;DHT22;13044;49.304;12.840;2022-12-29T12:07:37;9.90;97.10
25046;DHT22;13044;49.304;12.840;2022-12-29T12:09:59;10.00;96.50
25046;DHT22;13044;49.304;12.840;2022-12-29T12:16:16;10.00;96.60
25046;DHT22;13044;49.304;12.840;2022-12-29T12:18:56;10.00;95.40
25046;DHT22;13044;49.304;12.840;2022-12-29T12:21:39;10.00;96.00
25046;DHT22;13044;49.304;12.840;2022-12-29T12:27:20;10.00;95.50
25046;DHT22;13044;49.304;12.840;2022-12-29T12:35:36;10.10;96.00
25046;DHT22;13044;49.304;12.840;2022-12-29T12:50:38;10.80;94.60
25046;DHT22;13044;49.304;12.840;2022-12-29T12:53:38;10.90;94.20
25046;DHT22;13044;49.304;12.840;2022-12-29T13:05:26;10.80;94.70
25046;DHT22;13044;49.304;12.840;2022-12-29T13:11:35;10.70;95.10
25046;DHT22;13044;49.304;12.840;2022-12-29T13:15:03;10.60;95.20
25046;DHT22;13044;49.304;12.840;2022-12-29T13:20:38;10.50;96.60
25046;DHT22;13044;49.304;12.840;2022-12-29T13:29:13;10.30;97.70
25046;DHT22;13044;49.304;12.840;2022-12-29T13:32:24;10.30;98.00
25046;DHT22;13044;49.304;12.840;2022-12-29T13:35:31;10.30;98.70
25046;DHT22;13044;49.304;12.840;2022-12-29T13:40:54;10.20;99.10
25046;DHT22;13044;49.304;12.840;2022-12-29T13:43:25;10.20;99.70
25046;DHT22;13044;49.304;12.840;2022-12-29T13:46:06;10.20;99.80
25046;DHT22;13044;49.304;12.840;2022-12-29T13:49:19;10.10;99.90
25046;DHT22;13044;49.304;12.840;2022-12-29T13:51:31;10.10;99.90
25046;DHT22;13044;49.304;12.840;2022-12-29T13:54:07;10.10;99.90
25046;DHT22;13044;49.304;12.840;2022-12-29T14:00:02;10.20;99.90
25046;DHT22;13044;49.304;12.840;2022-12-29T14:07:58;10.50;99.90
25046;DHT22;13044;49.304;12.840;2022-12-29T14:10:57;10.50;99.90
25046;DHT22;13044;49.304;12.840;2022-12-29T14:13:25;10.50;99.90
25046;DHT22;13044;49.304;12.840;2022-12-29T14:15:57;10.50;99.80
25046;DHT22;13044;49.304;12.840;2022-12-29T14:18:30;10.50;99.60
25046;DHT22;13044;49.304;12.840;2022-12-29T14:21:21;10.40;99.90
25046;DHT22;13044;49.304;12.840;2022-12-29T14:23:54;10.30;99.90
25046;DHT22;13044;49.304;12.840;2022-12-29T14:26:33;10.30;99.90
25046;DHT22;13044;49.304;12.840;2022-12-29T14:31:51;10.20;99.90
25046;DHT22;13044;49.304;12.840;2022-12-29T14:34:30;10.10;99.90
25046;DHT22;13044;49.304;12.840;2022-12-29T14:37:26;10.10;99.90
25046;DHT22;13044;49.304;12.840;2022-12-29T14:40:23;10.00;99.90
25046;DHT22;13044;49.304;12.840;2022-12-29T14:42:54;9.90;99.90
25046;DHT22;13044;49.304;12.840;2022-12-29T14:45:31;9.70;99.90
25046;DHT22;13044;49.304;12.840;2022-12-29T14:48:27;9.60;99.90
25046;DHT22;13044;49.304;12.840;2022-12-29T14:50:57;9.50;99.90
25046;DHT22;13044;49.304;12.840;2022-12-29T14:53:46;9.50;99.90
25046;DHT22;13044;49.304;12.840;2022-12-29T14:56:17;9.50;99.90
25046;DHT22;13044;49.304;12.840;2022-12-29T14:58:53;9.40;99.90
25046;DHT22;13044;49.304;12.840;2022-12-29T15:01:40;9.30;99.90
25046;DHT22;13044;49.304;12.840;2022-12-29T15:04:21;9.20;99.90
25046;DHT22;13044;49.304;12.840;2022-12-29T15:06:49;9.20;99.90
25046;DHT22;13044;49.304;12.840;2022-12-29T15:09:41;9.20;99.90
25046;DHT22;13044;49.304;12.840;2022-12-29T15:14:59;9.10;99.90
25046;DHT22;13044;49.304;12.840;2022-12-29T15:17:31;9.00;99.90
25046;DHT22;13044;49.304;12.840;2022-12-29T15:20:03;8.90;99.90
25046;DHT22;13044;49.304;12.840;2022-12-29T15:22:49;9.00;99.90
25046;DHT22;13044;49.304;12.840;2022-12-29T15:25:23;8.90;99.90
25046;DHT22;13044;49.304;12.840;2022-12-29T15:27:52;8.90;99.90
25046;DHT22;13044;49.304;12.840;2022-12-29T15:30:20;9.00;99.90
25046;DHT22;13044;49.304;12.840;2022-12-29T15:32:49;9.00;99.90
25046;DHT22;13044;49.304;12.840;2022-12-29T15:38:13;9.00;99.90
25046;DHT22;13044;49.304;12.840;2022-12-29T15:40:46;9.10;99.90
25046;DHT22;13044;49.304;12.840;2022-12-29T15:46:13;9.00;99.90
25046;DHT22;13044;49.304;12.840;2022-12-29T15:48:40;9.00;99.90
25046;DHT22;13044;49.304;12.840;2022-12-29T15:51:18;9.00;99.90
25046;DHT22;13044;49.304;12.840;2022-12-29T15:53:50;9.00;99.90
25046;DHT22;13044;49.304;12.840;2022-12-29T15:56:18;9.10;99.90
25046;DHT22;13044;49.304;12.840;2022-12-29T15:58:47;9.10;99.90
25046;DHT22;13044;49.304;12.840;2022-12-29T16:01:32;9.20;99.90
25046;DHT22;13044;49.304;12.840;2022-12-29T16:04:04;9.10;99.90
25046;DHT22;13044;49.304;12.840;2022-12-29T16:06:37;9.10;99.90
25046;DHT22;13044;49.304;12.840;2022-12-29T16:09:17;9.10;99.90
25046;DHT22;13044;49.304;12.840;2022-12-29T16:11:53;9.10;99.90
25046;DHT22;13044;49.304;12.840;2022-12-29T16:14:30;9.10;99.90
25046;DHT22;13044;49.304;12.840;2022-12-29T16:17:02;9.10;99.90
25046;DHT22;13044;49.304;12.840;2022-12-29T16:19:35;9.10;99.90
25046;DHT22;13044;49.304;12.840;2022-12-29T16:22:15;9.20;99.90
25046;DHT22;13044;49.304;12.840;2022-12-29T16:24:45;9.10;99.90
25046;DHT22;13044;49.304;12.840;2022-12-29T16:27:21;9.00;99.90
25046;DHT22;13044;49.304;12.840;2022-12-29T16:29:54;8.90;99.90
25046;DHT22;13044;49.304;12.840;2022-12-29T16:32:30;8.90;99.90
25046;DHT22;13044;49.304;12.840;2022-12-29T16:37:47;8.90;99.90
25046;DHT22;13044;49.304;12.840;2022-12-29T16:42:47;8.90;99.90
25046;DHT22;13044;49.304;12.840;2022-12-29T16:50:34;8.90;99.90
25046;DHT22;13044;49.304;12.840;2022-12-29T16:53:04;8.90;99.90
25046;DHT22;13044;49.304;12.840;2022-12-29T16:55:32;8.80;99.90
25046;DHT22;13044;49.304;12.840;2022-12-29T16:57:59;8.80;99.90
25046;DHT22;13044;49.304;12.840;2022-12-29T17:00:31;8.80;99.90
25046;DHT22;13044;49.304;12.840;2022-12-29T17:03:01;8.60;99.90
25046;DHT22;13044;49.304;12.840;2022-12-29T17:05:29;8.70;99.90
25046;DHT22;13044;49.304;12.840;2022-12-29T17:07:56;8.70;99.90
25046;DHT22;13044;49.304;12.840;2022-12-29T17:10:28;8.70;99.90
25046;DHT22;13044;49.304;12.840;2022-12-29T17:13:13;8.70;99.90
25046;DHT22;13044;49.304;12.840;2022-12-29T17:15:40;8.70;99.90
25046;DHT22;13044;49.304;12.840;2022-12-29T17:18:07;8.70;99.90
25046;DHT22;13044;49.304;12.840;2022-12-29T17:20:39;8.70;99.90
25046;DHT22;13044;49.304;12.840;2022-12-29T17:23:14;8.70;99.90
25046;DHT22;13044;49.304;12.840;2022-12-29T17:25:50;8.60;99.90
25046;DHT22;13044;49.304;12.840;2022-12-29T17:28:26;8.70;99.90
25046;DHT22;13044;49.304;12.840;2022-12-29T17:31:01;8.70;99.90
25046;DHT22;13044;49.304;12.840;2022-12-29T17:33:36;8.70;99.90
25046;DHT22;13044;49.304;12.840;2022-12-29T17:36:04;8.80;99.90
25046;DHT22;13044;49.304;12.840;2022-12-29T17:38:34;8.70;99.90
25046;DHT22;13044;49.304;12.840;2022-12-29T17:41:01;8.60;99.90
25046;DHT22;13044;49.304;12.840;2022-12-29T17:43:28;8.60;99.90
25046;DHT22;13044;49.304;12.840;2022-12-29T17:46:05;8.60;99.90
25046;DHT22;13044;49.304;12.840;2022-12-29T17:48:33;8.70;99.90
25046;DHT22;13044;49.304;12.840;2022-12-29T17:51:00;8.70;99.90
25046;DHT22;13044;49.304;12.840;2022-12-29T17:53:28;8.60;99.90
25046;DHT22;13044;49.304;12.840;2022-12-29T17:55:55;8.50;99.90
25046;DHT22;13044;49.304;12.840;2022-12-29T17:58:23;8.50;99.90
25046;DHT22;13044;49.304;12.840;2022-12-29T18:00:53;8.40;99.90
25046;DHT22;13044;49.304;12.840;2022-12-29T18:03:31;8.30;99.90
25046;DHT22;13044;49.304;12.840;2022-12-29T18:06:00;8.20;99.90
25046;DHT22;13044;49.304;12.840;2022-12-29T18:08:27;8.20;99.90
25046;DHT22;13044;49.304;12.840;2022-12-29T18:10:55;8.10;99.90
25046;DHT22;13044;49.304;12.840;2022-12-29T18:13:24;8.10;99.90
25046;DHT22;13044;49.304;12.840;2022-12-29T18:16:11;8.10;99.90